createdAt,value
2023-03-15T00:00:53.827Z,97572.69
2023-03-15T00:03:20.328Z,97569.34
2023-03-15T00:05:48.856Z,97566.88
2023-03-15T00:08:15.544Z,97572.09
2023-03-15T00:10:42.684Z,97559.25
2023-03-15T00:13:09.648Z,97548.91
2023-03-15T00:15:36.266Z,97554.06
2023-03-15T00:18:03.182Z,97567.78
2023-03-15T00:20:30.498Z,97556.72
2023-03-15T00:22:56.951Z,97568.03
2023-03-15T00:25:23.307Z,97555.00
2023-03-15T00:27:49.866Z,97572.47
2023-03-15T00:30:16.565Z,97560.41
2023-03-15T00:32:42.947Z,97556.72
2023-03-15T00:35:12.834Z,97556.00
2023-03-15T00:37:39.218Z,97556.13
2023-03-15T00:40:07.309Z,97573.31
2023-03-15T00:42:33.876Z,97573.31
2023-03-15T00:45:00.281Z,97569.84
2023-03-15T00:47:26.679Z,97575.81
2023-03-15T00:49:53.190Z,97580.16
2023-03-15T00:52:19.563Z,97578.50
2023-03-15T00:54:55.419Z,97581.94
2023-03-15T00:57:22.066Z,97579.25
2023-03-15T00:59:48.432Z,97576.56
2023-03-15T01:02:14.810Z,97580.03
2023-03-15T01:04:41.152Z,97592.06
2023-03-15T01:07:07.639Z,97592.81
2023-03-15T01:09:34.187Z,97582.44
2023-03-15T01:12:00.539Z,97595.41
2023-03-15T01:14:26.905Z,97598.78
2023-03-15T01:16:53.314Z,97607.50
2023-03-15T01:19:19.689Z,97612.50
2023-03-15T01:21:47.772Z,97619.44
2023-03-15T01:24:14.502Z,97622.84
2023-03-15T01:26:40.902Z,97633.09
2023-03-15T01:29:07.495Z,97643.44
2023-03-15T01:31:34.250Z,97649.41
2023-03-15T01:34:01.035Z,97658.81
2023-03-15T01:36:27.500Z,97669.16
2023-03-15T01:38:55.141Z,97691.22
2023-03-15T01:41:21.589Z,97701.44
2023-03-15T01:43:48.030Z,97703.13
2023-03-15T01:46:23.465Z,97708.03
2023-03-15T01:48:57.455Z,97715.59
2023-03-15T01:51:41.764Z,97716.38
2023-03-15T01:54:15.566Z,97725.69
2023-03-15T01:56:45.454Z,97720.41
2023-03-15T01:59:15.380Z,97721.00
2023-03-15T02:01:45.804Z,97732.19
2023-03-15T02:04:15.641Z,97729.41
2023-03-15T02:06:46.538Z,97738.88
2023-03-15T02:09:14.998Z,97739.63
2023-03-15T02:11:41.978Z,97734.56
2023-03-15T02:14:08.455Z,97737.91
2023-03-15T02:16:34.924Z,97736.25
2023-03-15T02:19:01.549Z,97744.78
2023-03-15T02:21:40.203Z,97737.91
2023-03-15T02:24:13.451Z,97729.13
2023-03-15T02:26:45.619Z,97732.50
2023-03-15T02:29:12.064Z,97737.69
2023-03-15T02:31:38.588Z,97734.06
2023-03-15T02:34:06.735Z,97743.66
2023-03-15T02:36:33.379Z,97739.34
2023-03-15T02:39:00.143Z,97732.38
2023-03-15T02:41:29.554Z,97741.88
2023-03-15T02:44:00.454Z,97744.53
2023-03-15T02:46:27.088Z,97741.19
2023-03-15T02:48:54.164Z,97746.34
2023-03-15T02:51:22.654Z,97737.53
2023-03-15T02:53:49.336Z,97731.53
2023-03-15T02:56:16.108Z,97726.44
2023-03-15T02:58:45.628Z,97741.94
2023-03-15T03:01:13.643Z,97743.56
2023-03-15T03:03:41.310Z,97736.66
2023-03-15T03:06:08.108Z,97739.25
2023-03-15T03:08:34.657Z,97759.00
2023-03-15T03:11:01.059Z,97764.94
2023-03-15T03:13:27.413Z,97763.00
2023-03-15T03:15:58.775Z,97769.16
2023-03-15T03:18:26.390Z,97776.09
2023-03-15T03:20:55.552Z,97771.69
2023-03-15T03:23:22.081Z,97776.84
2023-03-15T03:25:48.422Z,97785.41
2023-03-15T03:28:14.775Z,97812.13
2023-03-15T03:30:41.347Z,97812.81
2023-03-15T03:33:07.693Z,97836.84
2023-03-15T03:35:34.123Z,97845.38
2023-03-15T03:38:00.818Z,97846.06
2023-03-15T03:40:27.173Z,97846.13
2023-03-15T03:42:53.522Z,97841.00
2023-03-15T03:45:19.924Z,97841.00
2023-03-15T03:47:46.340Z,97837.63
2023-03-15T03:50:12.701Z,97838.53
2023-03-15T03:52:39.137Z,97846.34
2023-03-15T03:55:05.925Z,97845.50
2023-03-15T03:57:32.277Z,97829.19
2023-03-15T03:59:58.838Z,97839.75
2023-03-15T04:02:25.413Z,97825.19
2023-03-15T04:04:51.819Z,97825.16
2023-03-15T04:07:18.334Z,97825.44
2023-03-15T04:09:44.699Z,97806.44
2023-03-15T04:12:11.257Z,97802.31
2023-03-15T04:14:37.662Z,97787.81
2023-03-15T04:17:04.110Z,97777.38
2023-03-15T04:19:30.888Z,97775.81
2023-03-15T04:21:57.444Z,97760.16
2023-03-15T04:24:23.805Z,97754.22
2023-03-15T04:26:50.208Z,97739.63
2023-03-15T04:29:17.002Z,97723.97
2023-03-15T04:31:43.552Z,97725.00
2023-03-15T04:34:09.922Z,97709.69
2023-03-15T04:36:36.517Z,97698.66
2023-03-15T04:39:05.313Z,97684.81
2023-03-15T04:41:32.096Z,97672.66
2023-03-15T04:43:58.675Z,97657.41
2023-03-15T04:46:25.209Z,97649.78
2023-03-15T04:48:51.626Z,97623.06
2023-03-15T04:51:18.052Z,97589.59
2023-03-15T04:53:44.413Z,97575.00
2023-03-15T04:56:10.798Z,97547.34
2023-03-15T04:58:37.139Z,97519.56
2023-03-15T05:01:03.652Z,97514.31
2023-03-15T05:03:30.035Z,97498.88
2023-03-15T05:05:56.620Z,97486.47
2023-03-15T05:08:22.963Z,97478.84
2023-03-15T05:10:49.364Z,97460.75
2023-03-15T05:13:15.742Z,97452.13
2023-03-15T05:15:42.103Z,97450.41
2023-03-15T05:18:08.474Z,97445.41
2023-03-15T05:20:34.819Z,97427.16
2023-03-15T05:23:01.424Z,97407.09
2023-03-15T05:25:27.765Z,97410.91
2023-03-15T05:27:55.462Z,97393.84
2023-03-15T05:30:21.845Z,97374.09
2023-03-15T05:32:48.391Z,97361.19
2023-03-15T05:35:14.820Z,97360.88
2023-03-15T05:37:42.498Z,97351.34
2023-03-15T05:40:09.780Z,97345.38
2023-03-15T05:42:36.415Z,97333.94
2023-03-15T05:45:03.032Z,97330.44
2023-03-15T05:47:29.419Z,97327.84
2023-03-15T05:49:55.785Z,97338.53
2023-03-15T05:52:22.305Z,97329.13
2023-03-15T05:54:49.780Z,97324.84
2023-03-15T05:57:16.185Z,97306.69
2023-03-15T05:59:42.706Z,97303.06
2023-03-15T06:02:09.100Z,97296.91
2023-03-15T06:04:36.634Z,97303.72
2023-03-15T06:07:03.221Z,97303.91
2023-03-15T06:09:29.580Z,97298.44
2023-03-15T06:11:55.973Z,97295.91
2023-03-15T06:14:22.505Z,97294.03
2023-03-15T06:16:48.882Z,97287.72
2023-03-15T06:19:15.286Z,97299.81
2023-03-15T06:21:41.647Z,97303.28
2023-03-15T06:24:08.539Z,97301.34
2023-03-15T06:26:34.883Z,97299.66
2023-03-15T06:29:01.419Z,97308.19
2023-03-15T06:31:27.837Z,97301.19
2023-03-15T06:33:54.273Z,97307.13
2023-03-15T06:36:20.665Z,97310.47
2023-03-15T06:38:47.030Z,97307.81
2023-03-15T06:41:15.704Z,97303.16
2023-03-15T06:43:42.333Z,97314.44
2023-03-15T06:46:08.910Z,97317.63
2023-03-15T06:48:35.309Z,97327.81
2023-03-15T06:51:01.706Z,97339.31
2023-03-15T06:53:28.089Z,97321.81
2023-03-15T06:55:54.475Z,97327.53
2023-03-15T06:58:20.908Z,97339.84
2023-03-15T07:00:49.129Z,97338.59
2023-03-15T07:03:15.505Z,97325.53
2023-03-15T07:05:42.053Z,97337.56
2023-03-15T07:08:08.431Z,97341.06
2023-03-15T07:10:34.981Z,97347.75
2023-03-15T07:13:01.420Z,97345.91
2023-03-15T07:15:28.437Z,97364.47
2023-03-15T07:17:54.981Z,97358.47
2023-03-15T07:20:21.395Z,97365.38
2023-03-15T07:22:47.844Z,97344.38
2023-03-15T07:25:14.346Z,97359.00
2023-03-15T07:27:41.058Z,97345.47
2023-03-15T07:30:09.499Z,97371.88
2023-03-15T07:32:36.156Z,97387.41
2023-03-15T07:35:02.676Z,97384.41
2023-03-15T07:37:29.390Z,97401.63
2023-03-15T07:39:55.847Z,97416.19
2023-03-15T07:42:22.462Z,97436.56
2023-03-15T07:44:48.850Z,97461.31
2023-03-15T07:47:15.408Z,97479.19
2023-03-15T07:49:41.762Z,97496.94
2023-03-15T07:52:08.623Z,97536.91
2023-03-15T07:54:35.031Z,97563.03
2023-03-15T07:57:01.422Z,97590.88
2023-03-15T07:59:28.043Z,97620.09
2023-03-15T08:01:54.790Z,97617.16
2023-03-15T08:04:21.254Z,97612.25
2023-03-15T08:06:47.631Z,97603.75
2023-03-15T08:09:14.029Z,97680.69
2023-03-15T08:11:41.278Z,97745.50
2023-03-15T08:14:08.838Z,97767.53
2023-03-15T08:16:35.234Z,97784.53
2023-03-15T08:19:01.842Z,97813.81
2023-03-15T08:21:28.193Z,97820.53
2023-03-15T08:23:54.797Z,97824.75
2023-03-15T08:26:21.143Z,97870.06
2023-03-15T08:28:47.487Z,97855.38
2023-03-15T08:31:14.013Z,97841.91
2023-03-15T08:33:40.666Z,97842.13
2023-03-15T08:36:07.325Z,97848.78
2023-03-15T08:38:33.737Z,97908.88
2023-03-15T08:41:00.127Z,97924.16
2023-03-15T08:43:26.551Z,98002.19
2023-03-15T08:46:00.649Z,98017.19
2023-03-15T08:48:27.719Z,98006.69
2023-03-15T08:50:54.210Z,98022.69
2023-03-15T08:53:20.889Z,98021.50
2023-03-15T08:55:48.853Z,98067.00
2023-03-15T08:58:15.220Z,98128.56
2023-03-15T09:00:41.654Z,98158.50
2023-03-15T09:03:08.678Z,98192.03
2023-03-15T09:05:35.253Z,98222.44
2023-03-15T09:08:01.900Z,98268.56
2023-03-15T09:10:28.297Z,98277.28
2023-03-15T09:12:54.884Z,98254.44
2023-03-15T09:15:21.920Z,98240.88
2023-03-15T09:17:51.595Z,98245.44
2023-03-15T09:20:19.210Z,98269.44
2023-03-15T09:22:56.173Z,98282.28
2023-03-15T09:25:22.955Z,98298.69
2023-03-15T09:27:49.724Z,98296.72
2023-03-15T09:30:16.278Z,98319.75
2023-03-15T09:32:44.100Z,98353.22
2023-03-15T09:35:13.522Z,98364.38
2023-03-15T09:37:40.200Z,98360.25
2023-03-15T09:40:08.213Z,98392.25
2023-03-15T09:42:38.736Z,98389.25
2023-03-15T09:45:10.643Z,98397.69
2023-03-15T09:47:46.808Z,98388.91
2023-03-15T09:50:21.809Z,98442.47
2023-03-15T09:52:50.580Z,98474.72
2023-03-15T09:55:19.970Z,98516.38
2023-03-15T09:57:55.735Z,98499.38
2023-03-15T10:00:37.492Z,98499.81
2023-03-15T10:03:07.213Z,98567.72
2023-03-15T10:05:48.949Z,98559.72
2023-03-15T10:08:17.466Z,98537.41
2023-03-15T10:10:56.808Z,98567.63
2023-03-15T10:13:42.679Z,98602.66
2023-03-15T10:16:37.969Z,98714.59
2023-03-15T10:19:13.823Z,98694.78
2023-03-15T10:22:00.477Z,98713.09
2023-03-15T10:24:45.343Z,98836.50
2023-03-15T10:27:28.912Z,98852.69
2023-03-15T10:29:56.071Z,98916.22
2023-03-15T10:32:25.942Z,98883.69
2023-03-15T10:34:53.310Z,98983.84
2023-03-15T10:37:19.876Z,99009.06
2023-03-15T10:39:46.984Z,99001.59
2023-03-15T10:42:40.207Z,99029.19
2023-03-15T10:45:33.855Z,99055.72
2023-03-15T10:48:01.248Z,99118.44
2023-03-15T10:50:30.957Z,99182.81
2023-03-15T10:52:58.092Z,99203.38
2023-03-15T10:55:44.152Z,99154.63
2023-03-15T10:58:31.304Z,99162.94
2023-03-15T11:01:03.384Z,99153.25
2023-03-15T11:03:30.110Z,99150.78
2023-03-15T11:05:57.887Z,99081.03
2023-03-15T11:08:45.611Z,99043.94
2023-03-15T11:11:12.020Z,99044.09
2023-03-15T11:13:39.684Z,99048.19
2023-03-15T11:16:15.252Z,99054.50
2023-03-15T11:18:53.953Z,99056.56
2023-03-15T11:21:22.281Z,99077.50
2023-03-15T11:23:49.574Z,99186.53
2023-03-15T11:26:32.498Z,99508.81
2023-03-15T11:29:18.803Z,99771.97
2023-03-15T11:31:45.308Z,99824.81
2023-03-15T11:35:06.125Z,100117.88
2023-03-15T11:37:42.410Z,100780.13
2023-03-15T11:40:24.487Z,100830.22
2023-03-15T11:43:08.715Z,100831.03
2023-03-15T11:45:54.152Z,100820.88
2023-03-15T11:48:55.871Z,100821.50
2023-03-15T11:51:22.235Z,100814.88
2023-03-15T11:54:08.945Z,100808.69
2023-03-15T11:56:44.542Z,100833.13
2023-03-15T11:59:35.365Z,100827.56
2023-03-15T12:02:11.247Z,100833.56
2023-03-15T12:04:47.612Z,100841.25
2023-03-15T12:07:19.855Z,100836.03
2023-03-15T12:09:46.212Z,100835.03
2023-03-15T12:12:24.954Z,100817.72
2023-03-15T12:15:14.559Z,100821.69
2023-03-15T12:17:57.033Z,100835.72
2023-03-15T12:20:37.953Z,100838.13
2023-03-15T12:23:19.339Z,100835.38
2023-03-15T12:25:58.426Z,100820.63
2023-03-15T12:28:31.453Z,100823.81
2023-03-15T12:30:59.652Z,100841.81
2023-03-15T12:33:26.188Z,100830.50
2023-03-15T12:35:52.642Z,100836.69
2023-03-15T12:38:20.677Z,100839.28
2023-03-15T12:40:56.701Z,100853.06
2023-03-15T12:43:41.609Z,100863.44
2023-03-15T12:46:08.111Z,100861.47
2023-03-15T12:48:34.630Z,100870.53
2023-03-15T12:51:02.267Z,100876.50
2023-03-15T12:53:31.585Z,100864.31
2023-03-15T12:56:08.032Z,100876.34
2023-03-15T12:58:36.263Z,100880.31
2023-03-15T13:01:05.283Z,100887.53
2023-03-15T13:03:34.655Z,100872.75
2023-03-15T13:06:22.664Z,100896.50
2023-03-15T13:09:11.638Z,100892.91
2023-03-15T13:12:04.046Z,100891.59
2023-03-15T13:14:41.549Z,100919.88
2023-03-15T13:17:26.969Z,100918.00
2023-03-15T13:20:11.098Z,100890.41
2023-03-15T13:22:55.428Z,100863.06
2023-03-15T13:25:54.864Z,100837.94
2023-03-15T13:28:28.090Z,100854.94
2023-03-15T13:30:55.452Z,100882.00
2023-03-15T13:33:31.700Z,100885.88
2023-03-15T13:36:03.684Z,100877.81
2023-03-15T13:38:30.738Z,100886.06
2023-03-15T13:40:58.403Z,100897.19
2023-03-15T13:43:26.565Z,100895.53
2023-03-15T13:45:54.773Z,100898.75
2023-03-15T13:48:21.159Z,100918.91
2023-03-15T13:50:50.560Z,100913.44
2023-03-15T13:53:35.649Z,100904.78
2023-03-15T13:56:09.985Z,100905.91
2023-03-15T13:58:37.375Z,100919.00
2023-03-15T14:01:05.684Z,100914.19
2023-03-15T14:03:32.052Z,100915.78
2023-03-15T14:05:58.741Z,100940.09
2023-03-15T14:08:29.853Z,100943.66
2023-03-15T14:11:12.278Z,100941.84
2023-03-15T14:13:51.693Z,100954.47
2023-03-15T14:16:33.822Z,100944.81
2023-03-15T14:19:19.045Z,100940.03
2023-03-15T14:21:53.238Z,100938.25
2023-03-15T14:24:38.815Z,100959.50
2023-03-15T14:27:10.191Z,100962.72
2023-03-15T14:29:37.675Z,100967.94
2023-03-15T14:32:12.298Z,100974.19
2023-03-15T14:34:46.268Z,100981.84
2023-03-15T14:37:29.936Z,100971.81
2023-03-15T14:40:15.246Z,100965.50
2023-03-15T14:42:42.921Z,100971.31
2023-03-15T14:45:09.466Z,100966.56
2023-03-15T14:47:45.436Z,100979.47
2023-03-15T14:50:22.283Z,100979.78
2023-03-15T14:52:49.519Z,100978.00
2023-03-15T14:55:18.282Z,100982.69
2023-03-15T14:57:44.909Z,100956.19
2023-03-15T15:00:13.750Z,100964.09
2023-03-15T15:02:40.181Z,100977.53
2023-03-15T15:05:18.223Z,100978.88
2023-03-15T15:07:44.755Z,100980.47
2023-03-15T15:10:11.453Z,100982.31
2023-03-15T15:12:37.848Z,100991.72
2023-03-15T15:15:22.893Z,100988.88
2023-03-15T15:17:49.830Z,101000.03
2023-03-15T15:20:16.414Z,100998.88
2023-03-15T15:22:42.920Z,101003.81
2023-03-15T15:25:22.564Z,101001.25
2023-03-15T15:27:48.981Z,101012.34
2023-03-15T15:30:20.541Z,101012.47
2023-03-15T15:32:47.039Z,101012.63
2023-03-15T15:35:15.419Z,101025.25
2023-03-15T15:37:42.514Z,101025.22
2023-03-15T15:40:17.499Z,101035.00
2023-03-15T15:42:47.114Z,101025.38
2023-03-15T15:45:14.902Z,101031.69
2023-03-15T15:47:41.297Z,101025.66
2023-03-15T15:50:08.578Z,101027.63
2023-03-15T15:52:35.695Z,101045.19
2023-03-15T15:55:02.359Z,101037.19
2023-03-15T15:57:28.777Z,101043.44
2023-03-15T15:59:55.210Z,101038.34
2023-03-15T16:02:23.542Z,101052.34
2023-03-15T16:04:50.456Z,101050.56
2023-03-15T16:07:17.071Z,101047.13
2023-03-15T16:09:44.330Z,101054.94
2023-03-15T16:12:14.612Z,101048.81
2023-03-15T16:14:41.738Z,101057.50
2023-03-15T16:17:17.214Z,101065.41
2023-03-15T16:19:43.681Z,101064.75
2023-03-15T16:22:10.038Z,101067.41
2023-03-15T16:24:36.924Z,101071.75
2023-03-15T16:27:04.979Z,101073.47
2023-03-15T16:29:39.170Z,101078.72
2023-03-15T16:32:16.827Z,101077.06
2023-03-15T16:34:45.638Z,101087.53
2023-03-15T16:37:13.560Z,101085.84
2023-03-15T16:39:41.634Z,101090.22
2023-03-15T16:42:11.510Z,101111.13
2023-03-15T16:44:37.891Z,101105.94
2023-03-15T16:47:04.372Z,101103.34
2023-03-15T16:49:30.723Z,101110.31
2023-03-15T16:51:57.146Z,101107.66
2023-03-15T16:54:39.945Z,101110.31
2023-03-15T16:57:15.948Z,101113.78
2023-03-15T16:59:42.353Z,101117.25
2023-03-15T17:02:19.818Z,101126.81
2023-03-15T17:04:46.588Z,101130.31
2023-03-15T17:07:14.437Z,101134.63
2023-03-15T17:09:42.292Z,101138.13
2023-03-15T17:12:27.480Z,101136.38
2023-03-15T17:14:55.191Z,101142.47
2023-03-15T17:17:21.581Z,101145.06
2023-03-15T17:19:48.237Z,101136.41
2023-03-15T17:22:15.927Z,101137.25
2023-03-15T17:24:42.485Z,101138.13
2023-03-15T17:27:25.359Z,101151.13
2023-03-15T17:29:51.766Z,101153.69
2023-03-15T17:32:18.210Z,101144.13
2023-03-15T17:34:47.150Z,101138.94
2023-03-15T17:37:14.733Z,101145.00
2023-03-15T17:39:41.772Z,101138.03
2023-03-15T17:42:13.254Z,101136.31
2023-03-15T17:44:39.685Z,101136.25
2023-03-15T17:47:08.479Z,101130.22
2023-03-15T17:49:35.776Z,101131.09
2023-03-15T17:52:02.917Z,101130.22
2023-03-15T17:54:29.327Z,101131.06
2023-03-15T17:56:56.923Z,101118.88
2023-03-15T17:59:23.476Z,101103.28
2023-03-15T18:01:49.952Z,101082.50
2023-03-15T18:04:17.018Z,101053.88
2023-03-15T18:06:43.478Z,100927.44
2023-03-15T18:09:15.269Z,100611.56
2023-03-15T18:11:42.525Z,100274.28
2023-03-15T18:14:13.548Z,100030.63
2023-03-15T18:16:40.314Z,99925.97
2023-03-15T18:19:06.858Z,99854.34
2023-03-15T18:21:33.225Z,99790.50
2023-03-15T18:23:59.621Z,99750.16
2023-03-15T18:26:25.969Z,99688.19
2023-03-15T18:28:52.390Z,99577.84
2023-03-15T18:31:23.259Z,99527.09
2023-03-15T18:33:50.055Z,99485.03
2023-03-15T18:36:16.804Z,99426.50
2023-03-15T18:38:43.294Z,99353.31
2023-03-15T18:41:21.008Z,99313.81
2023-03-15T18:43:49.527Z,99291.53
2023-03-15T18:46:17.763Z,99260.56
2023-03-15T18:48:45.321Z,99248.59
2023-03-15T18:51:12.611Z,99220.16
2023-03-15T18:53:39.378Z,99203.75
2023-03-15T18:56:06.135Z,99187.28
2023-03-15T18:58:32.624Z,99179.47
2023-03-15T19:00:59.091Z,99173.38
2023-03-15T19:03:25.554Z,99146.72
2023-03-15T19:05:51.921Z,99134.66
2023-03-15T19:08:18.331Z,99133.06
2023-03-15T19:10:46.857Z,99114.19
2023-03-15T19:13:13.199Z,99103.09
2023-03-15T19:15:39.699Z,99096.31
2023-03-15T19:18:06.433Z,99087.94
2023-03-15T19:20:33.809Z,99062.25
2023-03-15T19:23:00.205Z,99047.72
2023-03-15T19:25:26.582Z,99036.75
2023-03-15T19:27:52.930Z,99023.16
2023-03-15T19:30:22.022Z,99009.44
2023-03-15T19:32:50.350Z,98998.31
2023-03-15T19:35:17.669Z,98984.63
2023-03-15T19:37:44.494Z,98965.69
2023-03-15T19:40:12.379Z,98958.72
2023-03-15T19:42:38.859Z,98947.63
2023-03-15T19:45:05.985Z,98948.69
2023-03-15T19:47:32.406Z,98938.41
2023-03-15T19:49:58.791Z,98928.94
2023-03-15T19:52:27.132Z,98946.16
2023-03-15T19:54:53.504Z,98940.22
2023-03-15T19:57:19.856Z,98946.34
2023-03-15T19:59:46.417Z,98942.22
2023-03-15T20:02:13.208Z,98930.28
2023-03-15T20:04:39.689Z,98914.91
2023-03-15T20:07:06.147Z,98916.63
2023-03-15T20:09:38.735Z,98909.75
2023-03-15T20:12:10.158Z,98895.00
2023-03-15T20:14:36.541Z,98918.09
2023-03-15T20:17:03.416Z,98935.44
2023-03-15T20:19:29.893Z,98928.50
2023-03-15T20:21:57.756Z,98913.78
2023-03-15T20:24:24.375Z,98907.75
2023-03-15T20:26:51.739Z,98911.28
2023-03-15T20:29:18.328Z,98909.72
2023-03-15T20:31:44.771Z,98907.22
2023-03-15T20:34:12.056Z,98917.72
2023-03-15T20:36:38.402Z,98913.59
2023-03-15T20:39:05.494Z,98917.13
2023-03-15T20:41:33.166Z,98908.50
2023-03-15T20:43:59.794Z,98900.72
2023-03-15T20:46:26.265Z,98899.97
2023-03-15T20:48:52.689Z,98903.50
2023-03-15T20:51:19.098Z,98886.44
2023-03-15T20:53:45.530Z,98892.50
2023-03-15T20:56:11.907Z,98888.25
2023-03-15T20:58:38.361Z,98864.97
2023-03-15T21:01:07.847Z,98845.19
2023-03-15T21:03:35.241Z,98832.41
2023-03-15T21:06:02.562Z,98821.22
2023-03-15T21:08:29.024Z,98814.41
2023-03-15T21:10:55.501Z,98823.03
2023-03-15T21:13:22.117Z,98813.72
2023-03-15T21:15:49.356Z,98802.50
2023-03-15T21:18:16.703Z,98782.78
2023-03-15T21:20:43.110Z,98787.16
2023-03-15T21:23:09.560Z,98780.28
2023-03-15T21:25:35.923Z,98750.97
2023-03-15T21:28:02.571Z,98726.88
2023-03-15T21:30:28.976Z,98714.88
2023-03-15T21:32:55.457Z,98704.66
2023-03-15T21:35:22.279Z,98692.59
2023-03-15T21:37:48.728Z,98681.53
2023-03-15T21:40:15.133Z,98688.47
2023-03-15T21:42:42.635Z,98676.50
2023-03-15T21:45:09.893Z,98665.34
2023-03-15T21:47:36.806Z,98649.03
2023-03-15T21:50:03.238Z,98635.25
2023-03-15T21:52:29.683Z,98636.19
2023-03-15T21:54:56.048Z,98614.69
2023-03-15T21:57:22.423Z,98617.25
2023-03-15T21:59:49.412Z,98604.41
2023-03-15T22:02:16.623Z,98599.19
2023-03-15T22:04:43.626Z,98606.91
2023-03-15T22:07:11.020Z,98606.84
2023-03-15T22:09:38.032Z,98615.31
2023-03-15T22:12:05.354Z,98621.44
2023-03-15T22:14:31.697Z,98627.47
2023-03-15T22:16:58.134Z,98641.28
2023-03-15T22:19:24.966Z,98648.28
2023-03-15T22:21:51.357Z,98651.84
2023-03-15T22:24:17.688Z,98649.28
2023-03-15T22:26:44.141Z,98649.28
2023-03-15T22:29:10.924Z,98645.88
2023-03-15T22:31:38.113Z,98641.56
2023-03-15T22:34:05.405Z,98639.97
2023-03-15T22:36:34.671Z,98634.81
2023-03-15T22:39:01.456Z,98634.84
2023-03-15T22:41:27.920Z,98641.00
2023-03-15T22:43:55.119Z,98636.72
2023-03-15T22:46:21.530Z,98635.78
2023-03-15T22:48:47.911Z,98641.75
2023-03-15T22:51:15.176Z,98636.69
2023-03-15T22:53:41.900Z,98637.56
2023-03-15T22:56:08.274Z,98624.50
2023-03-15T22:58:34.950Z,98638.25
2023-03-15T23:01:01.473Z,98648.69
2023-03-15T23:03:27.986Z,98650.44
2023-03-15T23:05:54.958Z,98644.47
2023-03-15T23:08:22.689Z,98651.44
2023-03-15T23:10:49.057Z,98659.31
2023-03-15T23:13:15.599Z,98650.72
2023-03-15T23:15:42.145Z,98648.22
2023-03-15T23:18:08.680Z,98649.13
2023-03-15T23:20:35.361Z,98633.72
2023-03-15T23:23:01.723Z,98634.66
2023-03-15T23:25:28.811Z,98632.94
2023-03-15T23:27:55.394Z,98614.88
2023-03-15T23:30:21.898Z,98592.34
2023-03-15T23:32:49.092Z,98589.78
2023-03-15T23:35:16.109Z,98594.03
2023-03-15T23:37:42.871Z,98583.72
2023-03-15T23:40:15.160Z,98588.88
2023-03-15T23:42:42.984Z,98583.81
2023-03-15T23:45:09.996Z,98590.75
2023-03-15T23:47:36.362Z,98584.91
2023-03-15T23:50:02.722Z,98589.31
2023-03-15T23:52:29.463Z,98587.69
2023-03-15T23:54:55.817Z,98586.06
2023-03-15T23:57:22.299Z,98597.28
2023-03-15T23:59:48.696Z,98595.72
